Time;durP1;ratioP1;P1;durP2;ratioP2;P2;SDS_P1;SDS_P2;PMS_P1;PMS_P2;Temp;Humidity;BMP_temperature;BMP_pressure;BME280_temperature;BME280_humidity;BME280_pressure;Samples;Min_cycle;Max_cycle;Signal;HPM_P1;HPM_P2
2021/05/12 00:01:13;;;;;;;0.50;0.50;;;;;;;9.93;67.88;100809.55;1716321;82;21526;-69
2021/05/12 00:03:40;;;;;;;3.02;0.57;;;;;;;9.92;67.89;100801.33;1745757;80;21442;-68
2021/05/12 00:06:07;;;;;;;0.60;0.60;;;;;;;9.90;68.00;100796.63;1716294;82;22826;-69
2021/05/12 00:08:33;;;;;;;0.50;0.40;;;;;;;9.86;68.21;100802.12;1716646;82;21025;-69
2021/05/12 00:11:00;;;;;;;0.62;0.60;;;;;;;9.83;68.15;100793.13;1716155;82;21372;-70
2021/05/12 00:13:27;;;;;;;0.60;0.42;;;;;;;9.81;68.35;100794.52;1716689;80;21041;-68
2021/05/12 00:15:54;;;;;;;0.60;0.60;;;;;;;9.80;68.48;100795.89;1745806;82;20990;-72
2021/05/12 00:18:23;;;;;;;2.52;0.65;;;;;;;9.79;68.53;100801.61;1716461;82;20926;-73
2021/05/12 00:20:50;;;;;;;1.67;0.57;;;;;;;9.80;68.63;100804.59;1716314;82;21108;-71
2021/05/12 00:23:21;;;;;;;2.10;0.55;;;;;;;9.81;68.73;100798.91;1716159;82;20944;-72
2021/05/12 00:25:45;;;;;;;1.77;0.72;;;;;;;9.82;68.83;100798.81;1715752;82;20926;-71
2021/05/12 00:28:12;;;;;;;1.82;0.53;;;;;;;9.82;69.04;100800.59;1716474;82;21013;-72
2021/05/12 00:30:39;;;;;;;0.72;0.72;;;;;;;9.80;69.13;100801.97;1716510;82;20978;-72
2021/05/12 00:33:06;;;;;;;1.85;0.60;;;;;;;9.79;69.20;100800.30;1716229;82;20934;-72
2021/05/12 00:35:33;;;;;;;0.95;0.88;;;;;;;9.80;69.17;100801.13;1716172;82;20981;-72
2021/05/12 00:38:00;;;;;;;2.67;0.80;;;;;;;9.80;69.23;100794.12;1716124;82;20934;-71
2021/05/12 00:40:27;;;;;;;1.52;0.95;;;;;;;9.85;69.13;100797.80;1745727;80;20994;-72
2021/05/12 00:42:53;;;;;;;1.05;0.80;;;;;;;9.87;69.06;100796.81;1726718;80;22204;-73
2021/05/12 00:45:22;;;;;;;1.35;1.02;;;;;;;9.88;69.08;100799.80;1757269;80;20890;-72
2021/05/12 00:47:48;;;;;;;2.37;1.00;;;;;;;9.88;69.08;100798.95;1728012;81;20858;-71
2021/05/12 00:50:19;;;;;;;1.50;1.40;;;;;;;9.85;69.17;100796.05;1727788;81;20981;-71
2021/05/12 00:52:45;;;;;;;1.50;1.40;;;;;;;9.83;69.19;100801.83;1727521;81;20910;-72
2021/05/12 00:55:13;;;;;;;1.60;1.50;;;;;;;9.83;69.23;100797.06;1757199;80;21283;-71
2021/05/12 00:57:40;;;;;;;1.80;1.70;;;;;;;9.82;69.20;100801.43;1729153;81;21411;-71
2021/05/12 01:00:11;;;;;;;1.62;1.52;;;;;;;9.86;69.34;100800.81;1729045;81;20909;-71
2021/05/12 01:02:38;;;;;;;2.30;2.10;;;;;;;9.86;69.48;100796.88;1729026;81;21561;-72
2021/05/12 01:05:06;;;;;;;2.47;2.27;;;;;;;9.86;69.51;100798.19;1729273;81;20965;-72
2021/05/12 01:07:33;;;;;;;2.87;2.25;;;;;;;9.85;69.43;100789.94;1729246;81;21048;-71
2021/05/12 01:10:00;;;;;;;3.15;2.92;;;;;;;9.82;69.52;100785.71;1729137;81;20906;-72
2021/05/12 01:12:26;;;;;;;2.75;2.55;;;;;;;9.80;69.63;100786.73;1729138;81;20961;-71
2021/05/12 01:14:53;;;;;;;3.37;3.10;;;;;;;9.78;69.95;100788.11;1727912;81;21418;-71
2021/05/12 01:17:20;;;;;;;3.10;2.90;;;;;;;9.80;70.29;100793.28;1729301;81;20854;-72
2021/05/12 01:19:48;;;;;;;3.17;2.98;;;;;;;9.77;70.51;100788.22;1757127;81;21049;-72
2021/05/12 01:22:15;;;;;;;3.75;3.45;;;;;;;9.74;70.84;100796.62;1757131;81;20906;-71
2021/05/12 01:24:42;;;;;;;4.12;3.83;;;;;;;9.72;71.17;100798.47;1729294;81;20894;-71
2021/05/12 01:27:09;;;;;;;3.72;3.42;;;;;;;9.67;71.35;100793.95;1729121;81;21375;-71
2021/05/12 01:29:35;;;;;;;3.05;2.85;;;;;;;9.66;71.66;100792.24;1729310;81;20997;-72
2021/05/12 01:32:04;;;;;;;3.17;2.87;;;;;;;9.65;71.98;100799.73;1729298;81;21573;-72
2021/05/12 01:34:31;;;;;;;3.90;3.50;;;;;;;9.65;72.08;100791.01;1757105;81;20929;-72
2021/05/12 01:36:58;;;;;;;4.33;3.87;;;;;;;9.65;72.02;100792.31;1757118;81;20910;-72
2021/05/12 01:39:25;;;;;;;4.40;4.10;;;;;;;9.66;71.99;100792.71;1757180;80;20994;-72
2021/05/12 01:41:51;;;;;;;3.90;3.60;;;;;;;9.68;72.11;100789.08;1725910;82;20934;-73
2021/05/12 01:44:18;;;;;;;4.33;3.72;;;;;;;9.72;72.17;100792.39;1716170;82;22899;-73
2021/05/12 01:46:46;;;;;;;3.10;2.90;;;;;;;9.71;72.07;100790.69;1745503;82;21435;-71
2021/05/12 01:49:13;;;;;;;3.47;2.85;;;;;;;9.69;72.19;100795.16;1716009;82;20992;-71
2021/05/12 01:51:40;;;;;;;3.05;2.45;;;;;;;9.68;72.21;100794.31;1745664;82;20953;-71
2021/05/12 01:54:08;;;;;;;2.92;2.60;;;;;;;9.68;72.18;100793.02;1715891;82;20942;-72
2021/05/12 01:56:36;;;;;;;3.95;2.47;;;;;;;9.67;72.26;100791.77;1714780;82;21459;-70
2021/05/12 01:59:05;;;;;;;3.20;2.87;;;;;;;9.66;72.41;100785.70;1714848;82;21018;-70
2021/05/12 02:01:31;;;;;;;2.60;2.40;;;;;;;9.68;72.49;100787.77;1716009;82;20871;-72
2021/05/12 02:04:08;;;;;;;3.52;2.45;;;;;;;9.70;72.54;100786.39;1716234;82;20918;-71
2021/05/12 02:06:36;;;;;;;2.35;2.15;;;;;;;9.68;72.59;100790.86;1714912;82;21003;-72
2021/05/12 02:09:07;;;;;;;2.72;2.52;;;;;;;9.63;72.78;100791.11;1714771;82;20982;-71
2021/05/12 02:11:35;;;;;;;2.55;2.35;;;;;;;9.61;73.06;100790.81;1692977;82;21514;-72
2021/05/12 02:14:03;;;;;;;3.60;2.12;;;;;;;9.60;73.31;100787.80;1714740;82;21504;-72
2021/05/12 02:16:30;;;;;;;1.65;1.55;;;;;;;9.58;73.35;100785.72;1716051;82;20954;-73
2021/05/12 02:18:56;;;;;;;2.02;1.72;;;;;;;9.58;73.65;100791.80;1714804;82;20990;-72
2021/05/12 02:21:23;;;;;;;7.03;2.17;;;;;;;9.59;73.63;100793.50;1745738;81;21089;-73
2021/05/12 02:23:50;;;;;;;2.05;1.85;;;;;;;9.62;73.62;100789.87;1745555;80;21376;-72
2021/05/12 02:26:17;;;;;;;2.52;2.33;;;;;;;9.64;73.58;100794.09;1716271;82;21372;-73
2021/05/12 02:28:44;;;;;;;2.90;2.65;;;;;;;9.63;73.58;100798.97;1716084;82;20942;-72
2021/05/12 02:31:11;;;;;;;2.20;2.10;;;;;;;9.59;73.65;100794.81;1716203;82;20906;-73
2021/05/12 02:33:38;;;;;;;3.25;2.55;;;;;;;9.55;73.68;100791.97;1716281;82;20964;-73
2021/05/12 02:36:05;;;;;;;2.08;1.98;;;;;;;9.59;73.85;100800.52;1716427;82;21138;-72
2021/05/12 02:38:32;;;;;;;2.67;2.47;;;;;;;9.60;73.93;100795.18;1716116;82;21566;-72
2021/05/12 02:40:59;;;;;;;2.65;2.10;;;;;;;9.61;73.93;100794.74;1745586;82;21479;-72
2021/05/12 02:43:26;;;;;;;1.80;1.70;;;;;;;9.60;74.03;100792.56;1748503;81;20986;-72
2021/05/12 02:45:53;;;;;;;2.70;2.47;;;;;;;9.60;74.18;100795.18;1721567;82;21506;-72
2021/05/12 02:48:19;;;;;;;2.47;2.27;;;;;;;9.59;74.38;100793.98;1721792;82;21415;-73
2021/05/12 02:50:46;;;;;;;2.72;2.47;;;;;;;9.63;74.47;100788.97;1721691;82;20958;-71
2021/05/12 02:53:13;;;;;;;2.62;2.42;;;;;;;9.65;74.35;100789.26;1749460;82;20954;-72
2021/05/12 02:55:40;;;;;;;2.42;2.12;;;;;;;9.66;74.34;100800.57;1721766;82;20905;-71
2021/05/12 02:58:08;;;;;;;2.77;2.22;;;;;;;9.65;74.32;100798.42;1749531;82;21051;-71
2021/05/12 03:00:36;;;;;;;7.05;2.42;;;;;;;9.67;74.25;100802.25;1722628;82;20985;-73
2021/05/12 03:03:03;;;;;;;2.62;2.17;;;;;;;9.69;74.06;100799.09;1723493;82;20938;-72
2021/05/12 03:05:31;;;;;;;2.10;1.85;;;;;;;9.69;73.97;100795.16;1751833;80;20922;-72
2021/05/12 03:07:59;;;;;;;2.55;2.35;;;;;;;9.71;73.77;100795.45;1752181;82;21041;-72
2021/05/12 03:10:26;;;;;;;2.47;2.22;;;;;;;9.72;73.59;100799.78;1724245;82;22039;-72
2021/05/12 03:12:52;;;;;;;2.90;2.70;;;;;;;9.75;73.37;100801.38;1724304;82;21617;-72
2021/05/12 03:15:22;;;;;;;2.87;2.67;;;;;;;9.75;72.80;100795.67;1723761;80;21061;-73
2021/05/12 03:17:50;;;;;;;2.77;2.02;;;;;;;9.75;72.69;100807.46;1749908;80;20898;-72
2021/05/12 03:20:17;;;;;;;3.12;2.67;;;;;;;9.74;72.23;100805.78;1722347;82;20953;-70
2021/05/12 03:22:44;;;;;;;3.65;2.30;;;;;;;9.73;71.70;100803.23;1722287;82;21013;-73
2021/05/12 03:25:12;;;;;;;4.90;2.45;;;;;;;9.71;71.50;100813.78;1722148;82;20938;-71
2021/05/12 03:27:39;;;;;;;4.87;2.60;;;;;;;9.70;71.61;100806.87;1749759;82;21403;-73
2021/05/12 03:30:09;;;;;;;3.30;3.00;;;;;;;9.71;71.78;100806.40;1721844;82;20981;-74
2021/05/12 03:32:36;;;;;;;4.75;3.20;;;;;;;9.73;71.75;100820.26;1721780;82;20993;-73
2021/05/12 03:35:04;;;;;;;3.87;3.58;;;;;;;9.74;71.93;100813.64;1721904;82;23172;-73
2021/05/12 03:37:31;;;;;;;4.15;3.80;;;;;;;9.78;72.00;100812.99;1721684;82;21124;-74
2021/05/12 03:39:57;;;;;;;5.37;4.15;;;;;;;9.83;71.85;100820.63;1721934;82;20902;-71
2021/05/12 03:42:24;;;;;;;3.92;3.35;;;;;;;9.84;71.79;100817.91;1749462;81;21017;-72
2021/05/12 03:44:51;;;;;;;3.75;3.45;;;;;;;9.84;71.77;100812.67;1749451;82;20934;-71
2021/05/12 03:47:17;;;;;;;3.60;3.30;;;;;;;9.82;71.90;100815.83;1721703;82;20941;-71
2021/05/12 03:49:44;;;;;;;4.08;3.47;;;;;;;9.81;72.06;100821.17;1721717;82;21530;-74
2021/05/12 03:52:10;;;;;;;4.00;3.70;;;;;;;9.80;72.14;100812.92;1721454;82;20878;-71
2021/05/12 03:54:37;;;;;;;3.80;3.50;;;;;;;9.81;72.20;100815.94;1721812;82;20914;-71
2021/05/12 03:57:04;;;;;;;3.75;3.45;;;;;;;9.82;72.16;100818.92;1721636;82;20978;-72
2021/05/12 03:59:31;;;;;;;4.08;3.58;;;;;;;9.85;71.94;100822.23;1721716;82;22730;-72
2021/05/12 04:01:58;;;;;;;3.52;3.17;;;;;;;9.84;71.79;100812.67;1721675;82;20942;-71
2021/05/12 04:04:24;;;;;;;4.05;3.65;;;;;;;9.85;71.80;100821.36;1721704;82;21464;-71
2021/05/12 04:06:51;;;;;;;3.75;3.45;;;;;;;9.84;71.89;100810.05;1749286;82;20929;-74
2021/05/12 04:09:18;;;;;;;3.00;2.80;;;;;;;9.87;71.87;100809.91;1749534;82;21009;-73
2021/05/12 04:11:46;;;;;;;3.27;3.05;;;;;;;9.91;71.87;100815.33;1749378;82;21047;-72
2021/05/12 04:14:13;;;;;;;4.25;3.47;;;;;;;9.96;71.63;100811.19;1721504;82;21026;-72
2021/05/12 04:16:39;;;;;;;4.87;3.45;;;;;;;9.95;71.61;100812.94;1738749;82;21470;-72
2021/05/12 04:19:06;;;;;;;3.80;3.40;;;;;;;10.00;71.47;100815.77;1721722;82;21501;-73
2021/05/12 04:21:33;;;;;;;4.53;3.42;;;;;;;10.02;71.33;100808.67;1749425;82;21471;-73
2021/05/12 04:23:59;;;;;;;3.92;3.60;;;;;;;10.02;71.31;100816.53;1721870;80;23427;-72
2021/05/12 04:26:26;;;;;;;3.83;3.42;;;;;;;9.99;71.36;100814.94;1721631;82;21577;-72
2021/05/12 04:28:52;;;;;;;8.05;4.35;;;;;;;9.96;71.42;100820.35;1721692;82;20936;-74
2021/05/12 04:31:19;;;;;;;3.98;3.47;;;;;;;9.96;71.54;100817.73;1721530;82;20946;-75
2021/05/12 04:33:46;;;;;;;3.47;3.17;;;;;;;9.94;71.70;100817.80;1721808;82;20855;-74
2021/05/12 04:36:12;;;;;;;4.37;3.58;;;;;;;9.93;71.82;100819.19;1721722;82;22064;-74
2021/05/12 04:38:39;;;;;;;4.40;3.42;;;;;;;9.94;71.89;100823.05;1749383;82;21430;-74
2021/05/12 04:41:06;;;;;;;6.58;3.42;;;;;;;9.99;71.86;100821.95;1721926;82;21387;-73
2021/05/12 04:43:32;;;;;;;4.35;3.30;;;;;;;10.04;71.80;100821.23;1716990;82;21443;-72
2021/05/12 04:45:59;;;;;;;4.75;4.33;;;;;;;10.07;71.83;100824.55;1714102;80;20934;-73
2021/05/12 04:48:26;;;;;;;6.35;4.12;;;;;;;10.08;72.11;100826.69;1714245;81;21053;-72
2021/05/12 04:50:52;;;;;;;5.40;4.42;;;;;;;10.05;72.33;100823.78;1714178;82;21042;-72
2021/05/12 04:53:19;;;;;;;6.08;3.92;;;;;;;10.07;72.67;100827.60;1743598;82;21380;-73
2021/05/12 04:55:46;;;;;;;5.62;5.08;;;;;;;10.09;72.80;100827.06;1714067;82;20962;-74
2021/05/12 04:58:13;;;;;;;9.53;4.95;;;;;;;10.08;72.89;100824.91;1714467;82;21467;-73
2021/05/12 05:00:39;;;;;;;5.75;4.35;;;;;;;10.10;72.98;100826.14;1714134;82;21222;-72
2021/05/12 05:03:07;;;;;;;6.50;4.35;;;;;;;10.16;72.98;100825.81;1714126;82;21005;-70
2021/05/12 05:05:34;;;;;;;8.60;5.90;;;;;;;10.21;72.82;100830.80;1714152;82;21626;-71
2021/05/12 05:08:00;;;;;;;6.83;4.45;;;;;;;10.25;72.42;100825.30;1743507;82;20914;-69
2021/05/12 05:10:27;;;;;;;5.40;4.15;;;;;;;10.30;72.13;100829.02;1714126;82;20977;-70
2021/05/12 05:12:54;;;;;;;4.95;4.55;;;;;;;10.34;71.79;100831.38;1735172;81;20894;-74
2021/05/12 05:15:20;;;;;;;6.92;4.95;;;;;;;10.42;71.39;100822.23;1714101;82;21434;-77
2021/05/12 05:19:19;;;;;;;4.10;3.70;;;;;;;10.67;70.88;100818.61;1815675;79;23160;-82
2021/05/12 05:21:49;;;;;;;6.60;3.85;;;;;;;10.77;70.20;100815.81;1784271;80;20964;-82
2021/05/12 05:24:16;;;;;;;4.33;3.33;;;;;;;10.91;69.15;100818.11;1751352;80;23198;-83
2021/05/12 05:26:43;;;;;;;4.10;3.52;;;;;;;10.98;68.70;100820.75;1733612;80;20913;-81
2021/05/12 05:29:09;;;;;;;5.83;3.22;;;;;;;11.04;68.41;100823.02;1751845;80;21029;-79
2021/05/12 05:31:36;;;;;;;4.25;2.95;;;;;;;11.07;67.92;100824.17;1751357;80;20988;-78
2021/05/12 05:34:22;;;;;;;3.37;3.08;;;;;;;11.04;67.77;100820.39;1751264;80;20925;-80
2021/05/12 05:37:07;;;;;;;6.30;2.92;;;;;;;11.03;67.73;100823.97;1751217;80;20936;-81
2021/05/12 05:39:55;;;;;;;3.87;3.45;;;;;;;11.03;67.39;100829.22;1751243;80;20924;-80
2021/05/12 05:42:39;;;;;;;8.95;3.25;;;;;;;10.98;67.40;100828.18;1751630;80;21477;-83
2021/05/12 05:45:26;;;;;;;4.15;2.62;;;;;;;10.95;67.52;100829.65;1688504;80;21000;-83
2021/05/12 05:48:12;;;;;;;4.45;2.87;;;;;;;10.96;67.55;100830.05;1751334;80;21007;-83
2021/05/12 05:50:57;;;;;;;4.87;2.10;;;;;;;11.01;67.27;100823.69;1751340;80;22636;-82
2021/05/12 05:53:43;;;;;;;4.08;2.45;;;;;;;11.02;67.04;100827.98;1751217;80;21402;-86
2021/05/12 05:56:28;;;;;;;6.92;3.50;;;;;;;11.00;66.57;100832.00;1751696;80;21466;-83
2021/05/12 05:59:13;;;;;;;6.72;3.37;;;;;;;10.97;66.73;100830.88;1752580;79;21525;-81
2021/05/12 06:01:58;;;;;;;10.80;4.42;;;;;;;10.98;66.95;100830.80;1751480;80;20909;-81
2021/05/12 06:04:43;;;;;;;7.67;3.67;;;;;;;11.05;67.09;100831.28;1751393;80;20897;-84
2021/05/12 06:07:28;;;;;;;5.03;3.85;;;;;;;11.13;66.74;100834.28;1752609;79;20949;-81
2021/05/12 06:10:13;;;;;;;3.17;2.92;;;;;;;11.18;66.98;100835.32;1752159;80;21015;-85
2021/05/12 06:12:58;;;;;;;7.65;2.98;;;;;;;11.20;66.59;100837.39;1759445;80;21043;-83
2021/05/12 06:15:43;;;;;;;;;;;;;;;11.20;66.65;100833.45;1755680;80;20901;-82
2021/05/12 06:18:28;;;;;;;6.90;2.70;;;;;;;11.24;67.04;100832.82;1782195;80;21233;-88
2021/05/12 06:21:13;;;;;;;4.30;2.17;;;;;;;11.32;67.13;100832.74;1741285;80;20970;-87
2021/05/12 06:23:59;;;;;;;5.25;2.90;;;;;;;11.44;66.25;100830.31;1748207;80;20993;-85
2021/05/12 06:26:47;;;;;;;3.42;3.20;;;;;;;11.47;66.17;100834.05;1741182;80;20965;-83
2021/05/12 06:29:31;;;;;;;5.47;3.58;;;;;;;11.46;66.07;100833.22;1740910;80;20925;-83
2021/05/12 06:32:16;;;;;;;6.78;4.08;;;;;;;11.38;65.94;100834.14;1740829;80;20993;-83
2021/05/12 06:35:01;;;;;;;5.45;4.28;;;;;;;11.34;66.19;100841.38;1740495;80;20911;-85
2021/05/12 06:37:47;;;;;;;8.58;3.75;;;;;;;11.31;66.45;100838.91;1740823;80;20965;-84
2021/05/12 06:40:19;;;;;;;5.47;4.03;;;;;;;11.26;66.97;100835.73;1740744;80;21004;-83
2021/05/12 06:42:49;;;;;;;4.70;3.35;;;;;;;11.24;67.79;100842.01;1740629;80;21522;-81
2021/05/12 06:45:16;;;;;;;2.92;2.65;;;;;;;11.21;68.03;100846.97;1748136;80;20965;-82
2021/05/12 06:47:42;;;;;;;3.77;3.15;;;;;;;11.16;67.68;100844.63;1741109;80;20925;-83
2021/05/12 06:50:10;;;;;;;4.25;3.85;;;;;;;11.05;68.08;100844.41;1740567;80;20913;-81
2021/05/12 06:52:37;;;;;;;6.62;3.92;;;;;;;10.94;68.42;100838.47;1740762;80;21009;-81
2021/05/12 06:55:04;;;;;;;6.20;5.60;;;;;;;10.93;69.04;100835.45;1740619;80;20929;-84
2021/05/12 06:57:31;;;;;;;5.15;4.72;;;;;;;10.96;69.14;100827.42;1740819;80;23201;-84
2021/05/12 06:59:58;;;;;;;6.15;5.17;;;;;;;11.06;69.28;100834.27;1740810;80;21518;-83
2021/05/12 07:02:25;;;;;;;5.45;4.20;;;;;;;11.15;69.28;100832.41;1742743;80;20933;-84
2021/05/12 07:04:52;;;;;;;6.17;4.67;;;;;;;11.28;68.94;100829.08;1740468;80;21076;-84
2021/05/12 07:07:20;;;;;;;4.67;4.00;;;;;;;11.38;68.49;100831.52;1740842;80;21038;-84
2021/05/12 07:09:47;;;;;;;7.35;5.12;;;;;;;11.47;67.50;100828.36;1740881;80;23678;-82
2021/05/12 07:12:13;;;;;;;6.47;5.35;;;;;;;11.52;67.64;100830.23;1740508;80;20981;-85
2021/05/12 07:14:40;;;;;;;7.22;5.90;;;;;;;11.56;67.18;100825.61;1741384;80;20925;-85
2021/05/12 07:17:07;;;;;;;7.00;6.30;;;;;;;11.60;67.72;100821.87;1740550;80;21431;-84
2021/05/12 07:19:34;;;;;;;6.97;6.28;;;;;;;11.64;67.26;100822.54;1744406;81;21925;-88
2021/05/12 07:22:00;;;;;;;6.62;6.05;;;;;;;11.64;66.69;100822.54;1745133;81;21578;-83
2021/05/12 07:24:27;;;;;;;8.00;7.15;;;;;;;11.62;66.65;100822.15;1744696;81;20962;-82
2021/05/12 07:26:54;;;;;;;7.50;6.80;;;;;;;11.58;66.68;100820.67;1744620;81;21399;-85
2021/05/12 07:29:21;;;;;;;8.73;7.08;;;;;;;11.56;66.71;100821.67;1744516;81;20890;-82
2021/05/12 07:31:48;;;;;;;6.70;5.60;;;;;;;11.53;66.65;100816.14;1744941;81;20966;-86
2021/05/12 07:34:14;;;;;;;7.70;6.15;;;;;;;11.48;66.63;100816.06;1744836;81;21384;-83
2021/05/12 07:36:41;;;;;;;7.78;7.08;;;;;;;11.47;67.02;100816.98;1744787;81;21193;-82
2021/05/12 07:39:08;;;;;;;9.50;8.00;;;;;;;11.53;67.23;100810.89;1744956;81;21001;-79
2021/05/12 07:41:35;;;;;;;7.03;6.42;;;;;;;11.56;67.43;100811.17;1772847;79;20918;-81
2021/05/12 07:44:05;;;;;;;6.30;5.70;;;;;;;11.54;67.54;100803.41;1773363;80;20855;-85
2021/05/12 07:46:32;;;;;;;11.60;6.50;;;;;;;11.51;67.64;100805.36;1746663;81;22950;-80
2021/05/12 07:48:59;;;;;;;7.97;5.85;;;;;;;11.43;68.00;100803.66;1773688;81;21017;-84
2021/05/12 07:51:25;;;;;;;8.03;6.40;;;;;;;11.35;68.39;100791.84;1745852;81;21213;-85
2021/05/12 07:53:54;;;;;;;6.05;5.53;;;;;;;11.29;68.97;100803.19;1744924;81;20910;-83
2021/05/12 07:56:21;;;;;;;5.22;4.83;;;;;;;11.23;69.35;100803.55;1744641;81;20866;-83
2021/05/12 07:58:48;;;;;;;4.80;4.37;;;;;;;11.15;69.70;100807.48;1744829;81;20949;-84
2021/05/12 08:01:22;;;;;;;6.00;5.50;;;;;;;11.11;69.98;100805.97;1744883;81;21265;-72
2021/05/12 08:03:46;;;;;;;7.55;5.30;;;;;;;11.12;70.47;100804.22;1743762;81;20985;-71
2021/05/12 08:06:13;;;;;;;5.80;5.28;;;;;;;11.36;69.93;100804.06;1744452;81;21407;-71
2021/05/12 08:08:40;;;;;;;11.85;8.05;;;;;;;11.67;70.05;100806.58;1772557;80;21487;-72
2021/05/12 08:11:06;;;;;;;15.90;10.98;;;;;;;11.96;67.70;100797.78;1744383;81;21005;-71
2021/05/12 08:13:33;;;;;;;16.62;9.70;;;;;;;12.07;66.59;100793.13;1735197;81;20925;-73
2021/05/12 08:16:00;;;;;;;11.73;7.37;;;;;;;12.07;66.47;100791.81;1772491;80;20969;-72
2021/05/12 08:18:27;;;;;;;8.33;6.03;;;;;;;12.05;66.50;100789.78;1746507;80;21497;-71
2021/05/12 08:20:55;;;;;;;5.05;4.55;;;;;;;12.01;67.11;100788.28;1747301;80;21427;-73
2021/05/12 08:23:23;;;;;;;4.78;3.67;;;;;;;12.01;67.07;100783.03;1784881;80;21770;-70
2021/05/12 08:25:50;;;;;;;3.37;2.77;;;;;;;12.02;66.66;100786.02;1747093;80;20986;-71
2021/05/12 08:28:18;;;;;;;4.62;3.98;;;;;;;12.03;66.92;100788.55;1747225;80;21013;-72
2021/05/12 08:30:47;;;;;;;8.05;4.25;;;;;;;12.07;66.95;100784.41;1785023;80;20948;-70
2021/05/12 08:33:15;;;;;;;4.08;3.75;;;;;;;12.20;66.79;100781.37;1754301;80;21022;-72
2021/05/12 08:35:44;;;;;;;4.78;4.30;;;;;;;12.41;66.84;100776.52;1747213;80;20991;-72
2021/05/12 08:38:16;;;;;;;4.87;3.35;;;;;;;12.64;66.68;100770.58;1754045;80;20973;-72
2021/05/12 08:40:43;;;;;;;3.47;3.17;;;;;;;12.94;63.75;100781.34;1754359;80;21346;-71
2021/05/12 08:43:10;;;;;;;2.42;2.22;;;;;;;13.19;63.38;100775.72;1747237;80;20961;-71
2021/05/12 08:45:37;;;;;;;3.90;2.42;;;;;;;13.32;61.76;100773.95;1729903;80;20973;-72
2021/05/12 08:48:10;;;;;;;3.72;2.40;;;;;;;13.36;60.61;100773.25;1747105;80;21131;-73
2021/05/12 08:50:35;;;;;;;2.95;2.52;;;;;;;13.39;59.98;100763.36;1784495;80;20925;-70
2021/05/12 08:53:02;;;;;;;4.15;2.17;;;;;;;13.47;60.22;100762.81;1784800;80;20925;-71
2021/05/12 08:55:30;;;;;;;2.80;2.37;;;;;;;13.62;59.57;100755.15;1784872;79;21013;-71
2021/05/12 08:57:56;;;;;;;8.78;2.37;;;;;;;13.62;59.57;100755.15;1729624;80;20949;-72
2021/05/12 09:00:23;;;;;;;3.85;1.92;;;;;;;13.63;59.41;100754.22;1747223;80;22737;-72
2021/05/12 09:02:51;;;;;;;1.98;1.80;;;;;;;13.62;59.55;100751.68;1747096;80;20969;-71
2021/05/12 09:05:18;;;;;;;4.28;2.58;;;;;;;13.59;59.52;100747.47;1784873;80;20924;-73
2021/05/12 09:07:45;;;;;;;4.67;2.08;;;;;;;13.56;59.79;100745.52;1784800;80;20921;-70
2021/05/12 09:10:12;;;;;;;3.33;2.30;;;;;;;13.45;59.13;100744.95;1747303;80;20894;-71
2021/05/12 09:12:52;;;;;;;5.17;1.95;;;;;;;13.30;59.89;100741.61;1747116;80;22059;-71
2021/05/12 09:15:22;;;;;;;3.12;2.40;;;;;;;12.99;61.04;100741.05;1772993;80;21006;-71
2021/05/12 09:17:52;;;;;;;3.08;2.40;;;;;;;12.99;61.04;100741.05;1724157;81;21020;-71
2021/05/12 09:20:29;;;;;;;5.08;2.87;;;;;;;12.88;61.59;100746.20;1724230;81;21028;-72
2021/05/12 09:23:05;;;;;;;6.80;3.08;;;;;;;12.90;62.02;100732.95;1724034;81;20985;-71
2021/05/12 09:25:34;;;;;;;25.75;4.25;;;;;;;13.17;62.07;100726.27;1724288;81;21000;-72
2021/05/12 09:28:14;;;;;;;17.80;4.20;;;;;;;13.44;61.16;100732.26;1724242;81;20944;-72
2021/05/12 09:30:45;;;;;;;46.28;22.45;;;;;;;13.76;58.95;100729.16;1724331;81;21066;-72
2021/05/12 09:33:30;;;;;;;5.62;4.92;;;;;;;14.05;57.75;100723.09;1724308;81;20909;-72
2021/05/12 09:35:58;;;;;;;9.88;4.25;;;;;;;14.39;57.73;100724.55;1724384;81;20941;-72
2021/05/12 09:38:27;;;;;;;5.33;2.90;;;;;;;14.80;56.86;100722.42;1724160;81;20973;-71
2021/05/12 09:41:12;;;;;;;4.22;2.42;;;;;;;15.12;56.25;100711.55;1753434;80;20913;-70
2021/05/12 09:43:47;;;;;;;16.65;6.62;;;;;;;15.40;55.22;100705.41;1724131;81;20961;-72
2021/05/12 09:46:36;;;;;;;3.50;3.02;;;;;;;15.67;54.61;100708.15;1724014;81;20953;-74
2021/05/12 09:49:12;;;;;;;4.40;2.37;;;;;;;15.86;53.12;100705.74;1723633;81;20929;-72
2021/05/12 09:51:41;;;;;;;4.30;1.55;;;;;;;15.89;53.09;100716.55;1724195;81;21922;-72
2021/05/12 09:54:18;;;;;;;5.47;1.62;;;;;;;15.90;52.72;100704.53;1753688;81;20953;-72
2021/05/12 09:57:01;;;;;;;5.12;1.70;;;;;;;16.08;52.92;100698.23;1724354;80;20885;-72
2021/05/12 09:59:29;;;;;;;5.53;2.02;;;;;;;16.39;52.23;100696.19;1722796;81;21418;-69
2021/05/12 10:01:58;;;;;;;3.72;2.08;;;;;;;16.66;51.61;100689.88;1723744;80;21004;-72
2021/05/12 10:04:43;;;;;;;1.17;1.17;;;;;;;16.72;51.35;100681.43;1753866;81;21130;-71
2021/05/12 10:07:22;;;;;;;3.52;1.47;;;;;;;16.88;51.86;100677.02;1724102;81;20976;-71
2021/05/12 10:09:52;;;;;;;1.47;1.15;;;;;;;16.88;51.68;100691.58;1724315;81;20941;-70
2021/05/12 10:12:26;;;;;;;5.83;1.70;;;;;;;16.70;51.44;100693.12;1724056;81;20997;-71
2021/05/12 10:14:59;;;;;;;4.20;1.40;;;;;;;16.36;51.40;100691.96;1724340;81;20910;-73
2021/05/12 10:17:28;;;;;;;15.78;4.03;;;;;;;16.07;51.81;100689.08;1724443;81;21024;-72
2021/05/12 10:19:56;;;;;;;2.52;2.30;;;;;;;15.77;52.33;100681.86;1746704;80;20934;-71
2021/05/12 10:22:22;;;;;;;3.55;1.87;;;;;;;15.59;53.14;100686.30;1743787;82;21028;-71
2021/05/12 10:24:52;;;;;;;1.55;1.45;;;;;;;15.66;53.39;100678.72;1743812;82;20993;-72
2021/05/12 10:27:25;;;;;;;4.20;1.57;;;;;;;15.67;53.74;100677.28;1722633;81;21008;-73
2021/05/12 10:29:54;;;;;;;3.50;1.57;;;;;;;15.67;53.28;100677.74;1722606;82;21509;-70
2021/05/12 10:32:26;;;;;;;2.67;1.10;;;;;;;15.58;53.45;100674.52;1743694;82;21383;-71
2021/05/12 10:35:13;;;;;;;2.45;1.30;;;;;;;15.47;53.49;100676.23;1722312;82;21403;-70
2021/05/12 10:37:43;;;;;;;9.70;1.22;;;;;;;15.39;51.97;100668.56;1722664;82;20997;-71
2021/05/12 10:40:23;;;;;;;2.02;0.82;;;;;;;15.52;52.19;100670.09;1722088;82;21009;-71
2021/05/12 10:43:21;;;;;;;5.67;0.65;;;;;;;15.79;51.01;100665.39;1743903;82;21958;-71
2021/05/12 10:45:56;;;;;;;3.62;0.70;;;;;;;15.94;51.34;100657.04;1722526;82;20938;-71
2021/05/12 10:48:47;;;;;;;0.90;0.68;;;;;;;16.15;51.22;100658.38;1742725;82;25050;-72
2021/05/12 10:51:33;;;;;;;1.95;0.95;;;;;;;16.36;51.22;100661.06;1722362;82;20890;-71
2021/05/12 10:54:02;;;;;;;2.45;1.07;;;;;;;16.55;50.67;100654.21;1722788;82;21455;-72
2021/05/12 10:56:43;;;;;;;3.75;1.27;;;;;;;16.68;50.77;100665.94;1722290;82;22063;-74
2021/05/12 10:59:13;;;;;;;7.12;1.40;;;;;;;16.72;51.08;100673.48;1722431;82;20946;-72
2021/05/12 11:01:49;;;;;;;8.75;1.20;;;;;;;16.71;50.90;100665.66;1690149;82;20977;-72
2021/05/12 11:04:18;;;;;;;2.20;1.10;;;;;;;16.55;50.66;100662.98;1722306;82;21625;-72
2021/05/12 11:06:53;;;;;;;7.30;1.57;;;;;;;16.34;51.77;100660.81;1722483;82;20989;-71
2021/05/12 11:09:23;;;;;;;5.05;1.25;;;;;;;16.15;52.01;100660.20;1722572;82;21016;-71
2021/05/12 11:11:54;;;;;;;3.50;1.30;;;;;;;15.97;52.48;100656.44;1718596;81;21021;-73
2021/05/12 11:14:38;;;;;;;2.37;1.60;;;;;;;15.82;52.86;100659.84;1722708;82;20929;-71
2021/05/12 11:17:17;;;;;;;2.83;0.60;;;;;;;15.67;53.18;100698.89;1722542;82;21036;-74
2021/05/12 11:19:49;;;;;;;0.65;0.45;;;;;;;15.30;49.73;100701.84;1750509;81;20905;-72
2021/05/12 11:33:34;;;;;;;2.80;1.60;;;;;;;12.47;61.30;100704.25;1729455;81;20886;-70
2021/05/12 12:41:53;;;;;;;12.40;7.67;;;;;;;12.12;76.08;100675.88;1771505;80;22800;-71
2021/05/12 12:44:20;;;;;;;5.97;4.15;;;;;;;12.33;75.18;100678.39;1709410;82;20933;-69
2021/05/12 12:46:58;;;;;;;10.72;6.22;;;;;;;12.56;73.91;100676.88;1733211;81;20941;-70
2021/05/12 12:49:40;;;;;;;6.35;3.55;;;;;;;12.72;69.43;100675.36;1708825;82;21082;-70
2021/05/12 12:52:23;;;;;;;7.03;3.87;;;;;;;12.82;68.51;100663.23;1727587;83;20941;-70
2021/05/12 12:57:20;;;;;;;5.67;3.05;;;;;;;12.99;67.91;100660.77;1757198;81;21407;-70
2021/05/12 13:00:06;;;;;;;4.20;2.80;;;;;;;13.09;68.81;100664.06;1740604;80;21853;-70
2021/05/12 13:02:33;;;;;;;3.25;2.95;;;;;;;13.15;68.41;100663.64;1733194;79;20893;-72
2021/05/12 13:05:17;;;;;;;2.90;1.98;;;;;;;13.18;68.10;100660.78;1740448;82;20987;-70